Time;durP1;ratioP1;P1;durP2;ratioP2;P2;SDS_P1;SDS_P2;PMS_P1;PMS_P2;Temp;Humidity;BMP_temperature;BMP_pressure;BME280_temperature;BME280_humidity;BME280_pressure;Samples;Min_cycle;Max_cycle;Signal;HPM_P1;HPM_P2
2023/12/22 00:01:06;;;;;;;28.47;21.43;;;;;;;2.28;64.89;93427.72;4986331;28;20227;-69
2023/12/22 00:03:31;;;;;;;29.67;20.80;;;;;;;2.32;65.22;93416.88;4992275;28;20258;-69
2023/12/22 00:05:57;;;;;;;24.60;19.40;;;;;;;2.34;64.61;93412.38;4989495;28;20246;-69
2023/12/22 00:08:23;;;;;;;26.20;21.53;;;;;;;2.47;64.46;93411.25;4986298;28;20243;-73
2023/12/22 00:10:49;;;;;;;26.37;20.13;;;;;;;2.39;64.54;93410.19;4985100;28;20223;-69
2023/12/22 00:13:14;;;;;;;25.50;19.30;;;;;;;2.46;64.23;93399.22;4983670;28;20281;-69
2023/12/22 00:15:40;;;;;;;25.73;20.67;;;;;;;2.45;64.29;93408.00;4985948;28;20254;-73
2023/12/22 00:18:09;;;;;;;28.07;18.53;;;;;;;2.43;64.56;93410.72;4983817;28;20226;-70
2023/12/22 00:20:34;;;;;;;25.77;18.70;;;;;;;2.48;64.38;93392.94;4990292;28;20223;-73
2023/12/22 00:23:00;;;;;;;26.13;18.80;;;;;;;2.45;64.41;93390.63;4985609;28;20296;-72
2023/12/22 00:25:25;;;;;;;24.90;17.97;;;;;;;2.51;64.22;93382.28;4982672;28;20231;-69
2023/12/22 00:27:51;;;;;;;25.10;19.97;;;;;;;2.50;64.12;93400.59;4984126;28;20204;-71
2023/12/22 00:30:17;;;;;;;23.13;16.47;;;;;;;2.36;64.52;93373.34;4986688;28;20218;-72
2023/12/22 00:32:42;;;;;;;22.37;15.97;;;;;;;2.42;64.31;93383.97;4985191;28;20227;-68
2023/12/22 00:35:08;;;;;;;20.30;14.93;;;;;;;2.38;64.42;93379.22;4985052;28;20218;-69
2023/12/22 00:37:33;;;;;;;19.20;15.10;;;;;;;2.36;64.17;93363.78;4983982;28;20226;-67
2023/12/22 00:39:59;;;;;;;21.70;15.97;;;;;;;2.46;64.62;93363.75;4984788;28;20201;-69
2023/12/22 00:42:25;;;;;;;18.43;15.80;;;;;;;2.34;64.47;93357.09;4983922;28;20206;-69
2023/12/22 00:44:51;;;;;;;18.00;13.20;;;;;;;2.42;64.24;93352.00;4983544;28;20220;-72
2023/12/22 00:47:17;;;;;;;14.60;12.23;;;;;;;2.51;64.14;93358.13;4990878;28;20225;-70
2023/12/22 00:49:42;;;;;;;20.93;13.67;;;;;;;2.53;64.26;93351.81;4982866;28;20261;-69
2023/12/22 00:52:08;;;;;;;17.03;13.03;;;;;;;2.58;63.70;93331.44;4988789;28;20226;-72
2023/12/22 00:54:33;;;;;;;15.50;12.37;;;;;;;2.54;64.00;93347.44;4987396;28;20194;-72
2023/12/22 00:56:58;;;;;;;18.80;12.57;;;;;;;2.52;64.08;93328.63;4986491;28;20219;-72
2023/12/22 00:59:24;;;;;;;16.20;13.13;;;;;;;2.64;63.66;93315.28;4986546;28;20223;-72
2023/12/22 01:01:49;;;;;;;17.80;12.60;;;;;;;2.66;63.96;93325.53;4983988;28;20313;-72
2023/12/22 01:04:15;;;;;;;18.20;13.50;;;;;;;2.71;64.36;93333.72;4986159;28;20226;-72
2023/12/22 01:06:40;;;;;;;17.97;13.83;;;;;;;2.68;63.72;93335.78;4982066;28;20231;-72
2023/12/22 01:09:06;;;;;;;17.03;11.27;;;;;;;2.46;65.15;93332.63;4984012;28;20227;-72
2023/12/22 01:11:32;;;;;;;17.90;13.40;;;;;;;2.39;65.10;93353.13;4984283;28;20230;-68
2023/12/22 01:13:57;;;;;;;18.00;13.70;;;;;;;2.51;64.74;93358.94;4997931;28;20245;-73
2023/12/22 01:16:23;;;;;;;19.30;14.10;;;;;;;2.48;64.92;93341.06;4983983;28;20266;-73
2023/12/22 01:18:50;;;;;;;18.40;14.43;;;;;;;2.51;64.60;93345.94;4988399;28;20218;-70
2023/12/22 01:21:16;;;;;;;17.57;14.13;;;;;;;2.48;64.83;93348.84;4999783;28;20261;-69
2023/12/22 01:23:42;;;;;;;18.77;14.17;;;;;;;2.46;65.24;93336.97;4987886;28;20219;-67
2023/12/22 01:26:07;;;;;;;18.80;13.20;;;;;;;2.63;64.65;93341.41;4986635;28;20224;-68
2023/12/22 01:28:36;;;;;;;17.73;12.53;;;;;;;2.54;64.77;93344.84;4979153;28;20293;-67
2023/12/22 01:31:02;;;;;;;21.43;13.90;;;;;;;2.59;64.80;93324.47;4969517;28;20247;-68
2023/12/22 01:33:29;;;;;;;16.97;12.30;;;;;;;2.56;64.50;93322.19;4989111;28;20215;-67
2023/12/22 01:35:54;;;;;;;19.27;12.77;;;;;;;2.57;64.93;93342.00;4988939;28;20230;-67
2023/12/22 01:38:20;;;;;;;16.77;12.83;;;;;;;2.55;64.62;93313.59;4989292;28;20265;-67
2023/12/22 01:40:45;;;;;;;20.87;12.80;;;;;;;2.67;64.76;93313.38;4974063;28;20216;-67
2023/12/22 01:43:11;;;;;;;18.13;12.70;;;;;;;2.58;64.22;93309.88;4975884;28;20238;-67
2023/12/22 01:45:36;;;;;;;16.63;12.13;;;;;;;2.60;64.95;93303.59;4986581;28;20363;-67
2023/12/22 01:48:03;;;;;;;17.07;12.43;;;;;;;2.69;63.96;93314.06;4965514;28;20294;-67
2023/12/22 01:50:28;;;;;;;16.63;12.90;;;;;;;2.75;64.26;93282.31;4970553;28;20254;-67
2023/12/22 01:52:54;;;;;;;18.87;11.90;;;;;;;2.67;64.21;93292.63;4990105;28;20249;-67
2023/12/22 01:55:20;;;;;;;17.17;12.37;;;;;;;2.81;63.93;93297.31;4985026;28;20243;-67
2023/12/22 01:57:47;;;;;;;15.87;11.80;;;;;;;2.77;63.74;93277.78;4974393;28;20195;-67
2023/12/22 02:00:13;;;;;;;17.80;12.60;;;;;;;2.74;63.93;93286.69;4974655;28;20220;-67
2023/12/22 02:02:42;;;;;;;15.77;11.90;;;;;;;2.68;63.96;93284.69;4963612;28;20228;-67
2023/12/22 02:05:11;;;;;;;18.20;12.20;;;;;;;2.75;63.79;93275.34;4974886;28;20229;-68
2023/12/22 02:07:39;;;;;;;18.30;13.23;;;;;;;2.61;64.21;93294.81;4981394;28;20269;-67
2023/12/22 02:10:07;;;;;;;15.03;11.93;;;;;;;2.64;64.12;93271.19;4994131;28;20274;-68
2023/12/22 02:12:32;;;;;;;16.63;12.57;;;;;;;2.79;63.89;93286.25;4965847;28;20207;-67
2023/12/22 02:14:58;;;;;;;16.47;12.70;;;;;;;2.83;63.42;93282.38;4988241;28;20220;-68
2023/12/22 02:17:32;;;;;;;16.33;12.47;;;;;;;2.84;63.60;93271.88;4984874;28;20215;-68
2023/12/22 02:19:58;;;;;;;18.50;12.60;;;;;;;2.90;63.31;93277.44;4989898;28;20342;-67
2023/12/22 02:22:24;;;;;;;18.33;12.80;;;;;;;2.85;63.55;93275.28;4990443;28;20330;-67
2023/12/22 02:24:49;;;;;;;16.17;12.57;;;;;;;2.85;63.48;93276.09;4985794;28;20184;-68
2023/12/22 02:27:28;;;;;;;16.43;11.83;;;;;;;2.97;63.21;93287.09;4991830;28;20278;-67
2023/12/22 02:30:13;;;;;;;16.97;12.10;;;;;;;2.90;63.88;93287.81;4988723;28;20220;-68
2023/12/22 02:32:43;;;;;;;17.27;12.33;;;;;;;2.86;63.73;93279.50;4998177;28;20219;-68
2023/12/22 02:35:17;;;;;;;15.83;11.83;;;;;;;2.90;63.37;93280.84;4989649;28;20294;-68
2023/12/22 02:37:45;;;;;;;18.20;12.57;;;;;;;2.79;63.96;93271.50;4991578;28;20223;-68
2023/12/22 02:40:11;;;;;;;17.53;12.33;;;;;;;2.91;63.72;93266.88;4985351;28;20219;-68
2023/12/22 02:42:38;;;;;;;17.07;12.30;;;;;;;2.89;63.70;93266.25;4980855;28;20219;-68
2023/12/22 02:45:05;;;;;;;18.70;12.63;;;;;;;3.01;63.75;93272.81;4986754;28;20223;-68
2023/12/22 02:47:32;;;;;;;15.67;12.63;;;;;;;2.84;64.19;93273.66;4995176;28;20312;-68
2023/12/22 02:49:57;;;;;;;15.57;12.47;;;;;;;2.96;63.69;93266.44;4987440;28;20265;-68
2023/12/22 02:52:23;;;;;;;16.80;12.50;;;;;;;2.90;64.04;93267.88;4987728;28;20306;-68
2023/12/22 02:54:49;;;;;;;18.73;13.47;;;;;;;2.93;63.67;93243.38;4998692;28;20281;-68
2023/12/22 02:57:14;;;;;;;17.47;12.67;;;;;;;3.04;63.72;93243.97;4994041;28;20194;-68
2023/12/22 02:59:39;;;;;;;16.73;12.30;;;;;;;2.90;64.19;93249.69;4994500;28;20234;-68
2023/12/22 03:02:05;;;;;;;17.77;12.97;;;;;;;2.95;64.07;93244.88;4990510;28;20223;-68
2023/12/22 03:04:31;;;;;;;16.53;12.93;;;;;;;2.86;64.48;93243.16;4989253;28;20215;-67
2023/12/22 03:06:56;;;;;;;17.90;12.17;;;;;;;2.90;64.23;93246.28;4987605;28;20262;-68
2023/12/22 03:09:22;;;;;;;16.63;12.90;;;;;;;2.98;64.29;93241.16;4989004;28;20208;-68
2023/12/22 03:11:48;;;;;;;16.93;12.53;;;;;;;3.08;63.79;93226.31;4986188;28;20227;-68
2023/12/22 03:14:14;;;;;;;19.33;13.37;;;;;;;2.96;64.53;93237.88;4987616;28;20231;-68
2023/12/22 03:16:40;;;;;;;17.17;13.80;;;;;;;3.03;64.46;93231.97;4988303;28;20226;-68
2023/12/22 03:19:07;;;;;;;19.47;14.80;;;;;;;3.05;64.24;93234.41;4981455;28;20191;-67
2023/12/22 03:21:32;;;;;;;21.13;15.07;;;;;;;2.82;65.54;93239.25;4987386;28;20211;-68
2023/12/22 03:23:57;;;;;;;22.93;15.00;;;;;;;2.84;65.48;93253.69;4995528;28;20228;-67
2023/12/22 03:26:23;;;;;;;18.77;14.53;;;;;;;2.76;65.94;93250.22;4987792;28;20222;-67
2023/12/22 03:28:48;;;;;;;22.80;15.53;;;;;;;2.73;65.88;93243.53;5001577;28;20229;-67
2023/12/22 03:31:14;;;;;;;22.47;15.70;;;;;;;2.83;65.41;93246.88;4986984;28;20302;-68
2023/12/22 03:33:39;;;;;;;21.23;15.40;;;;;;;2.88;65.12;93252.44;4987897;28;20195;-68
2023/12/22 03:36:05;;;;;;;23.27;15.27;;;;;;;2.75;65.39;93256.34;4984830;28;20235;-68
2023/12/22 03:38:30;;;;;;;22.27;15.47;;;;;;;2.75;65.25;93253.75;4973377;28;20222;-68
2023/12/22 03:40:55;;;;;;;22.77;15.83;;;;;;;2.84;65.26;93255.50;4983516;28;20314;-68
2023/12/22 03:43:21;;;;;;;22.10;15.80;;;;;;;2.92;64.83;93247.78;4987013;28;20231;-68
2023/12/22 03:45:46;;;;;;;19.97;15.30;;;;;;;2.90;65.00;93235.91;4987852;28;20205;-68
2023/12/22 03:48:12;;;;;;;21.00;15.60;;;;;;;2.87;65.30;93231.81;4987530;28;20212;-67
2023/12/22 03:50:37;;;;;;;19.70;14.93;;;;;;;2.83;65.48;93233.91;4987729;28;20219;-67
2023/12/22 03:53:03;;;;;;;22.33;14.83;;;;;;;2.84;65.23;93237.31;4986075;28;20229;-67
2023/12/22 03:55:28;;;;;;;20.00;14.77;;;;;;;2.72;65.69;93238.50;4988466;28;20349;-67
2023/12/22 03:57:53;;;;;;;21.07;15.30;;;;;;;2.84;65.89;93238.13;4987679;28;20191;-67
2023/12/22 04:00:19;;;;;;;23.37;14.07;;;;;;;2.92;65.57;93242.59;4985943;28;20197;-67
2023/12/22 04:02:45;;;;;;;18.83;13.70;;;;;;;2.99;65.39;93238.41;4989797;28;20224;-66
2023/12/22 04:05:13;;;;;;;20.83;14.83;;;;;;;2.97;65.46;93237.75;4988279;28;20223;-67
2023/12/22 04:07:38;;;;;;;21.00;14.77;;;;;;;3.01;65.49;93243.47;4982710;28;20239;-67
2023/12/22 04:10:04;;;;;;;21.93;15.27;;;;;;;3.13;65.56;93236.22;4985379;28;20196;-67
2023/12/22 04:12:30;;;;;;;20.10;15.07;;;;;;;2.99;65.85;93238.41;4980185;28;20187;-67
2023/12/22 04:14:55;;;;;;;21.97;14.43;;;;;;;2.95;65.83;93241.47;4981340;28;20223;-68
2023/12/22 04:17:21;;;;;;;18.43;13.53;;;;;;;3.05;65.43;93243.00;4976313;28;20302;-68
2023/12/22 04:19:46;;;;;;;19.20;13.00;;;;;;;3.06;65.38;93242.03;4980316;28;20237;-68
2023/12/22 04:22:11;;;;;;;18.23;13.40;;;;;;;3.03;65.21;93237.16;4988933;28;20301;-67
2023/12/22 04:24:37;;;;;;;17.40;13.43;;;;;;;3.08;65.48;93231.50;4989423;28;20193;-68
2023/12/22 04:27:03;;;;;;;15.13;12.60;;;;;;;3.11;66.08;93235.59;4983886;28;20266;-68
2023/12/22 04:29:28;;;;;;;16.87;13.30;;;;;;;3.09;66.63;93230.53;4975185;28;20219;-67
2023/12/22 04:31:53;;;;;;;17.53;12.47;;;;;;;3.19;66.56;93225.25;4979511;28;20226;-68
2023/12/22 04:34:19;;;;;;;22.47;14.53;;;;;;;3.24;67.05;93233.41;4976794;28;20238;-67
2023/12/22 04:36:44;;;;;;;18.30;14.20;;;;;;;3.28;67.58;93232.13;4984024;28;20294;-67
2023/12/22 04:39:10;;;;;;;20.73;15.27;;;;;;;3.22;68.09;93217.97;4965099;28;20230;-67
2023/12/22 04:41:35;;;;;;;20.63;15.13;;;;;;;3.23;67.96;93216.19;4982649;28;20219;-67
2023/12/22 04:44:03;;;;;;;19.27;14.77;;;;;;;3.09;68.86;93220.16;4978798;28;20269;-72
2023/12/22 04:46:30;;;;;;;20.27;15.33;;;;;;;2.97;69.36;93216.19;4991683;28;20211;-67
2023/12/22 04:48:55;;;;;;;20.93;14.23;;;;;;;2.99;69.99;93215.03;4988568;28;20207;-67
2023/12/22 04:51:21;;;;;;;17.53;13.07;;;;;;;3.03;69.57;93206.00;5005681;28;20286;-66
2023/12/22 04:53:46;;;;;;;24.33;15.30;;;;;;;3.07;69.49;93214.28;4983502;28;20226;-67
2023/12/22 04:56:12;;;;;;;19.23;14.00;;;;;;;2.99;69.30;93211.63;4988009;28;20236;-67
2023/12/22 04:58:37;;;;;;;19.27;13.97;;;;;;;3.03;69.84;93213.78;4982770;28;20232;-68
2023/12/22 05:01:03;;;;;;;20.93;14.97;;;;;;;2.96;70.62;93210.16;4980493;28;20211;-67
2023/12/22 05:03:28;;;;;;;18.47;14.20;;;;;;;3.03;69.93;93211.19;4994385;28;20193;-68
2023/12/22 05:05:54;;;;;;;20.40;14.43;;;;;;;3.05;70.83;93196.28;4990541;28;20230;-66
2023/12/22 05:08:19;;;;;;;19.63;14.17;;;;;;;3.02;70.63;93196.59;4974005;28;20235;-67
2023/12/22 05:10:44;;;;;;;18.47;14.07;;;;;;;3.03;70.65;93200.78;4981204;28;20230;-67
2023/12/22 05:13:10;;;;;;;19.07;14.40;;;;;;;3.04;70.75;93202.41;4988195;28;20226;-69
2023/12/22 05:15:35;;;;;;;15.70;13.13;;;;;;;3.03;70.55;93194.78;4996197;28;20214;-67
2023/12/22 05:18:01;;;;;;;18.30;13.20;;;;;;;3.12;69.80;93204.25;4966463;28;20227;-67
2023/12/22 05:20:26;;;;;;;19.80;14.13;;;;;;;2.96;70.56;93189.38;4984924;28;20237;-67
2023/12/22 05:22:52;;;;;;;19.87;13.83;;;;;;;2.89;71.32;93188.38;4963984;28;20237;-65
2023/12/22 05:25:17;;;;;;;17.33;13.83;;;;;;;3.01;71.30;93194.94;4976730;28;20226;-67
2023/12/22 05:27:43;;;;;;;19.47;14.33;;;;;;;3.02;70.87;93193.97;4990072;28;20226;-67
2023/12/22 05:30:09;;;;;;;20.03;13.97;;;;;;;3.06;70.75;93202.28;4988617;28;20305;-67
2023/12/22 05:32:34;;;;;;;20.03;14.37;;;;;;;3.05;71.30;93203.25;4988150;28;20220;-68
2023/12/22 05:35:00;;;;;;;17.23;13.03;;;;;;;3.23;70.52;93213.59;4991943;28;20241;-67
2023/12/22 05:37:25;;;;;;;17.27;12.97;;;;;;;3.11;70.84;93213.03;4988085;28;20233;-67
2023/12/22 05:39:51;;;;;;;18.53;13.30;;;;;;;2.98;70.55;93217.78;4990216;28;20192;-69
2023/12/22 05:42:16;;;;;;;18.13;13.60;;;;;;;2.92;71.07;93202.81;4989630;28;20210;-68
2023/12/22 05:44:42;;;;;;;16.97;12.70;;;;;;;3.12;70.60;93196.47;4990406;28;20219;-68
2023/12/22 05:47:08;;;;;;;18.47;13.57;;;;;;;3.03;70.97;93216.38;4985648;28;20223;-67
2023/12/22 05:49:33;;;;;;;20.07;13.10;;;;;;;3.11;70.94;93212.22;4993229;28;20317;-67
2023/12/22 05:51:59;;;;;;;20.10;13.70;;;;;;;3.09;70.97;93191.59;4995221;28;20219;-67
2023/12/22 05:54:25;;;;;;;17.27;14.50;;;;;;;3.10;71.37;93185.41;4987633;28;20195;-68
2023/12/22 05:56:51;;;;;;;17.70;12.33;;;;;;;3.27;70.69;93207.94;4994294;28;20226;-68
2023/12/22 05:59:17;;;;;;;19.03;14.03;;;;;;;3.19;70.87;93200.09;4987738;28;20223;-67
2023/12/22 06:01:43;;;;;;;19.47;13.20;;;;;;;3.25;71.43;93199.47;4994490;28;20234;-67
2023/12/22 06:04:08;;;;;;;16.20;12.20;;;;;;;3.37;70.53;93197.47;4983875;28;20229;-69
2023/12/22 06:06:33;;;;;;;18.53;14.00;;;;;;;3.35;70.46;93201.19;4985079;28;20249;-68
2023/12/22 06:08:59;;;;;;;17.53;12.73;;;;;;;3.24;70.64;93178.88;4991271;28;20291;-72
2023/12/22 06:11:24;;;;;;;16.53;13.10;;;;;;;3.26;71.02;93208.94;4987410;28;20277;-71
2023/12/22 06:13:50;;;;;;;17.97;13.27;;;;;;;3.29;71.01;93200.81;4987543;28;20226;-71
2023/12/22 06:16:18;;;;;;;17.37;13.53;;;;;;;3.35;71.24;93191.59;4990870;28;20250;-71
2023/12/22 06:18:43;;;;;;;17.07;13.17;;;;;;;3.39;70.72;93205.91;4988318;28;20188;-70
2023/12/22 06:21:10;;;;;;;18.37;13.37;;;;;;;3.42;71.24;93200.44;4982553;28;20278;-70
2023/12/22 06:23:36;;;;;;;18.07;14.27;;;;;;;3.44;70.98;93203.66;4989232;28;20231;-70
2023/12/22 06:26:04;;;;;;;19.67;13.40;;;;;;;3.54;70.89;93204.38;4989716;28;20231;-68
2023/12/22 06:28:30;;;;;;;16.77;13.70;;;;;;;3.44;71.13;93221.84;4988163;28;20278;-68
2023/12/22 06:30:55;;;;;;;16.87;12.90;;;;;;;3.46;71.40;93219.13;4992196;28;20199;-67
2023/12/22 06:33:21;;;;;;;17.87;13.30;;;;;;;3.53;70.91;93220.13;4990064;28;20191;-68
2023/12/22 06:35:46;;;;;;;16.90;12.73;;;;;;;3.45;71.13;93220.91;4993146;28;20225;-67
2023/12/22 06:38:11;;;;;;;17.83;13.43;;;;;;;3.45;71.35;93231.28;4982927;28;20222;-67
2023/12/22 06:40:37;;;;;;;16.57;12.80;;;;;;;3.57;71.27;93213.66;4983587;28;20311;-69
2023/12/22 06:43:04;;;;;;;16.03;12.90;;;;;;;3.49;71.72;93227.41;4972610;28;20286;-68
2023/12/22 06:45:29;;;;;;;16.60;12.17;;;;;;;3.54;71.06;93227.78;4983270;28;20191;-68
2023/12/22 06:47:55;;;;;;;18.10;13.17;;;;;;;3.60;71.38;93228.94;4985889;28;20234;-67
2023/12/22 06:50:20;;;;;;;16.43;12.80;;;;;;;3.63;71.33;93227.81;4985677;28;20302;-68
2023/12/22 06:52:46;;;;;;;15.43;12.43;;;;;;;3.68;70.96;93221.19;4978547;28;20299;-68
2023/12/22 06:55:11;;;;;;;15.97;12.90;;;;;;;3.65;72.02;93228.47;4968969;28;20214;-66
2023/12/22 06:57:37;;;;;;;14.87;12.37;;;;;;;3.62;72.31;93229.59;4981502;28;20187;-67
2023/12/22 07:00:03;;;;;;;15.77;12.47;;;;;;;3.75;72.06;93229.19;4985217;28;20219;-69
2023/12/22 07:02:29;;;;;;;16.27;13.50;;;;;;;3.82;72.29;93224.97;4976033;28;20212;-68
2023/12/22 07:05:09;;;;;;;17.47;13.20;;;;;;;3.79;72.04;93220.09;4976608;28;20219;-67
2023/12/22 07:07:38;;;;;;;16.33;13.43;;;;;;;3.70;72.05;93229.66;4986444;28;20231;-68
2023/12/22 07:10:04;;;;;;;19.33;14.77;;;;;;;3.82;71.87;93242.38;4991494;28;20206;-67
2023/12/22 07:12:29;;;;;;;19.33;15.10;;;;;;;3.86;72.09;93231.53;4993447;28;20190;-68
2023/12/22 07:14:55;;;;;;;20.70;14.73;;;;;;;3.81;72.00;93245.97;4993134;28;20230;-67
2023/12/22 07:17:20;;;;;;;17.00;14.53;;;;;;;3.56;72.15;93239.81;4986943;28;20254;-68
2023/12/22 07:19:46;;;;;;;20.97;14.90;;;;;;;3.72;71.66;93245.09;4986740;28;20305;-67
2023/12/22 07:22:11;;;;;;;17.37;14.30;;;;;;;3.76;72.33;93238.59;4990633;28;20223;-67
2023/12/22 07:24:37;;;;;;;18.97;15.23;;;;;;;3.75;72.30;93237.00;4987993;28;20183;-67
2023/12/22 07:27:02;;;;;;;20.13;15.47;;;;;;;3.74;72.41;93246.59;4987979;28;20301;-68
2023/12/22 07:29:28;;;;;;;23.13;16.90;;;;;;;3.89;72.37;93240.78;4991366;28;20295;-68
2023/12/22 07:31:54;;;;;;;21.57;15.57;;;;;;;3.81;73.17;93245.97;4985481;28;20306;-69
2023/12/22 07:34:22;;;;;;;21.07;16.33;;;;;;;3.81;72.75;93251.97;4986702;28;20305;-69
2023/12/22 07:36:47;;;;;;;20.53;15.93;;;;;;;3.71;73.06;93239.06;4991133;28;20212;-68
2023/12/22 07:39:13;;;;;;;19.03;14.87;;;;;;;3.82;72.57;93235.38;4987434;28;20242;-68
2023/12/22 07:41:38;;;;;;;19.67;15.80;;;;;;;3.76;73.21;93246.41;4970414;28;20287;-68
2023/12/22 07:44:04;;;;;;;23.80;15.30;;;;;;;3.81;73.34;93243.34;4969911;28;20229;-70
2023/12/22 07:46:30;;;;;;;20.90;16.07;;;;;;;3.91;73.50;93252.66;4990151;28;20225;-68
2023/12/22 07:48:55;;;;;;;23.43;15.27;;;;;;;3.98;73.13;93264.09;4987347;28;20293;-67
2023/12/22 07:51:21;;;;;;;25.43;16.90;;;;;;;3.93;73.24;93260.34;4986893;28;20270;-68
2023/12/22 07:53:46;;;;;;;25.97;16.80;;;;;;;3.93;73.60;93261.16;4965156;28;20220;-68
2023/12/22 07:56:12;;;;;;;25.67;16.97;;;;;;;4.05;73.59;93263.47;4982818;28;20238;-68
2023/12/22 07:58:38;;;;;;;19.30;15.00;;;;;;;4.08;73.62;93276.16;4980688;28;20217;-67
2023/12/22 08:01:05;;;;;;;22.97;16.20;;;;;;;4.12;73.91;93274.88;4987215;28;20245;-74
2023/12/22 08:03:31;;;;;;;19.93;16.00;;;;;;;4.10;73.64;93287.22;4990565;28;20212;-68
2023/12/22 08:05:56;;;;;;;20.03;15.70;;;;;;;4.13;73.38;93277.31;4990629;28;20236;-68
2023/12/22 08:08:22;;;;;;;20.77;14.83;;;;;;;4.17;73.40;93293.41;4984610;28;20227;-68
2023/12/22 08:10:48;;;;;;;20.20;15.80;;;;;;;4.23;73.84;93292.00;4991149;28;20218;-74
2023/12/22 08:13:13;;;;;;;15.67;13.27;;;;;;;4.20;73.74;93293.13;4987925;28;20222;-76
2023/12/22 08:15:39;;;;;;;18.20;14.40;;;;;;;4.18;73.43;93295.06;4981019;28;20347;-71
2023/12/22 08:18:05;;;;;;;15.93;14.10;;;;;;;4.24;73.88;93299.63;4986903;28;20222;-69
2023/12/22 08:20:30;;;;;;;17.10;13.90;;;;;;;4.35;73.88;93295.94;4981739;28;20219;-73
2023/12/22 08:22:55;;;;;;;17.27;14.00;;;;;;;4.34;73.95;93310.75;4974881;28;20283;-76
2023/12/22 08:25:21;;;;;;;19.43;14.27;;;;;;;4.37;74.71;93307.03;4971913;28;20250;-71
2023/12/22 08:27:47;;;;;;;19.20;13.43;;;;;;;4.36;74.25;93303.63;4986926;28;20187;-69
2023/12/22 08:30:12;;;;;;;16.33;13.17;;;;;;;4.39;74.18;93307.69;4988925;28;20191;-69
2023/12/22 08:32:38;;;;;;;20.50;14.97;;;;;;;4.30;75.25;93308.59;4986013;28;20215;-69
2023/12/22 08:35:04;;;;;;;24.00;14.23;;;;;;;4.32;75.85;93304.88;4986823;28;20211;-74
2023/12/22 08:37:30;;;;;;;17.50;14.27;;;;;;;4.28;75.76;93308.78;4985579;28;20298;-76
2023/12/22 08:39:57;;;;;;;19.40;14.10;;;;;;;4.35;75.33;93312.38;4983008;28;20187;-76
2023/12/22 08:42:23;;;;;;;19.73;15.03;;;;;;;4.27;75.67;93293.31;4986048;28;20183;-75
2023/12/22 08:44:48;;;;;;;18.97;14.97;;;;;;;4.31;76.14;93300.66;4993581;28;20221;-76
2023/12/22 08:47:14;;;;;;;20.87;15.90;;;;;;;4.32;76.27;93310.09;4988560;28;20245;-77
2023/12/22 08:49:39;;;;;;;17.33;14.80;;;;;;;4.36;76.18;93300.19;4985574;28;20238;-69
2023/12/22 08:52:05;;;;;;;19.63;15.60;;;;;;;4.38;76.09;93306.03;4983769;28;20227;-68
2023/12/22 08:54:30;;;;;;;17.63;14.53;;;;;;;4.45;76.18;93301.03;4988328;28;20183;-71
2023/12/22 08:56:56;;;;;;;19.33;13.43;;;;;;;4.43;76.87;93302.00;4991816;28;20269;-71
2023/12/22 08:59:22;;;;;;;18.83;15.00;;;;;;;4.47;77.21;93310.31;4982852;28;20239;-72
2023/12/22 09:01:47;;;;;;;23.53;16.17;;;;;;;4.54;76.93;93307.91;4996193;28;20215;-71
2023/12/22 09:04:12;;;;;;;18.90;14.80;;;;;;;4.52;76.87;93318.47;4975834;28;20311;-72
2023/12/22 09:06:39;;;;;;;21.77;15.77;;;;;;;4.54;76.59;93313.09;4977305;28;20259;-72
2023/12/22 09:09:06;;;;;;;18.47;15.60;;;;;;;4.60;76.64;93322.91;4979806;28;20220;-71
2023/12/22 09:11:31;;;;;;;19.70;15.73;;;;;;;4.54;77.15;93318.31;4985782;28;20219;-73
2023/12/22 09:13:57;;;;;;;25.37;17.17;;;;;;;4.65;77.28;93325.81;4983478;28;20294;-71
2023/12/22 09:16:22;;;;;;;21.37;16.40;;;;;;;4.67;77.61;93326.50;4989337;28;20218;-73
2023/12/22 09:18:49;;;;;;;18.97;15.90;;;;;;;4.60;77.87;93334.13;4989251;28;20179;-70
2023/12/22 09:21:15;;;;;;;19.20;16.50;;;;;;;4.57;77.40;93331.84;4986765;28;20190;-73
2023/12/22 09:23:44;;;;;;;19.60;17.20;;;;;;;4.64;77.63;93332.03;4987501;28;20220;-69
2023/12/22 09:26:09;;;;;;;22.13;17.97;;;;;;;4.71;77.94;93343.44;4982871;28;20335;-70
2023/12/22 09:28:35;;;;;;;23.67;17.63;;;;;;;4.74;77.59;93335.31;4996982;28;20310;-72
2023/12/22 09:31:02;;;;;;;22.17;17.07;;;;;;;4.69;77.99;93340.19;4978997;28;20222;-71
2023/12/22 09:33:27;;;;;;;21.37;16.97;;;;;;;4.64;77.75;93329.41;4990118;28;20175;-72
2023/12/22 09:35:52;;;;;;;23.43;17.87;;;;;;;4.74;77.45;93324.09;4987364;28;20215;-72
2023/12/22 09:38:18;;;;;;;19.53;17.23;;;;;;;4.78;77.78;93323.59;4978649;28;20227;-72
2023/12/22 09:40:43;;;;;;;23.07;16.33;;;;;;;4.78;77.93;93328.00;4981361;28;20220;-72
2023/12/22 09:43:13;;;;;;;22.67;16.83;;;;;;;4.80;77.99;93318.25;4986612;28;20220;-71
2023/12/22 09:45:40;;;;;;;19.70;16.37;;;;;;;4.88;77.91;93309.63;4989758;28;20211;-72
2023/12/22 09:48:07;;;;;;;24.07;17.33;;;;;;;4.93;78.14;93313.38;4986544;28;20242;-72
2023/12/22 09:50:34;;;;;;;20.73;17.30;;;;;;;4.96;78.10;93318.28;4972460;28;20317;-72
2023/12/22 09:53:01;;;;;;;23.67;17.30;;;;;;;5.03;78.15;93318.47;4974698;28;20220;-71
2023/12/22 09:55:28;;;;;;;25.77;18.17;;;;;;;5.00;78.21;93310.97;4994346;28;20286;-73
2023/12/22 09:57:55;;;;;;;23.93;17.70;;;;;;;5.14;77.45;93315.56;5007179;28;20201;-71
2023/12/22 10:00:22;;;;;;;26.80;18.87;;;;;;;5.11;77.18;93308.06;5002162;28;20248;-72
2023/12/22 10:02:48;;;;;;;23.20;18.27;;;;;;;5.18;77.14;93300.41;4987537;28;20211;-70
2023/12/22 10:05:14;;;;;;;23.37;17.57;;;;;;;5.21;77.06;93294.88;4991745;28;20218;-69
2023/12/22 10:07:44;;;;;;;22.30;17.50;;;;;;;5.31;75.43;93300.75;4992322;28;20222;-72
2023/12/22 10:10:11;;;;;;;22.27;17.87;;;;;;;5.25;76.36;93280.56;4993371;28;20306;-71
2023/12/22 10:12:38;;;;;;;20.43;18.20;;;;;;;5.37;76.72;93292.25;4991856;28;20194;-70
2023/12/22 10:15:05;;;;;;;21.63;18.20;;;;;;;5.23;76.76;93301.53;4991597;28;20224;-70
2023/12/22 10:17:31;;;;;;;22.07;18.77;;;;;;;5.33;76.79;93290.16;4969992;28;20222;-72
2023/12/22 10:19:56;;;;;;;23.97;19.27;;;;;;;5.34;76.67;93281.38;4985941;28;20223;-71
2023/12/22 10:22:23;;;;;;;24.47;19.63;;;;;;;5.23;77.27;93252.03;4990585;28;20285;-72
2023/12/22 10:24:52;;;;;;;25.03;19.13;;;;;;;5.35;77.43;93267.38;4991620;28;20187;-72
2023/12/22 10:27:22;;;;;;;24.50;19.13;;;;;;;5.48;76.92;93267.66;4987238;28;20175;-72
2023/12/22 10:29:54;;;;;;;23.87;18.93;;;;;;;5.44;77.00;93255.94;4988624;28;20310;-71
2023/12/22 10:32:21;;;;;;;21.10;18.30;;;;;;;5.54;76.82;93251.38;4993534;28;20231;-74
2023/12/22 10:34:47;;;;;;;25.13;19.63;;;;;;;5.64;77.19;93251.19;4991149;28;20212;-79
2023/12/22 10:37:12;;;;;;;22.80;19.83;;;;;;;5.79;77.84;93246.94;4988594;28;20258;-74
2023/12/22 10:39:38;;;;;;;25.17;20.20;;;;;;;6.02;77.95;93254.91;4976055;28;20172;-76
2023/12/22 10:42:04;;;;;;;24.73;20.60;;;;;;;6.02;78.38;93241.06;4986899;28;20222;-76
2023/12/22 10:44:30;;;;;;;29.60;22.33;;;;;;;6.13;78.27;93233.69;4985371;28;20217;-78
2023/12/22 10:46:56;;;;;;;26.27;21.40;;;;;;;6.26;77.83;93229.72;4981243;28;20314;-78
2023/12/22 10:49:23;;;;;;;24.47;21.87;;;;;;;6.42;77.51;93221.00;4977718;28;20228;-78
2023/12/22 10:51:49;;;;;;;23.77;21.03;;;;;;;6.56;77.48;93207.22;4990661;28;20192;-73
2023/12/22 10:54:16;;;;;;;25.00;20.57;;;;;;;6.74;77.11;93207.78;4988325;28;20183;-75
2023/12/22 10:56:41;;;;;;;21.87;19.13;;;;;;;6.89;76.11;93202.59;4986023;28;20215;-69
2023/12/22 10:59:08;;;;;;;23.20;19.10;;;;;;;6.99;75.95;93205.00;4983179;28;20211;-76
2023/12/22 11:01:38;;;;;;;22.10;19.17;;;;;;;7.14;74.00;93203.25;4991407;28;20222;-76
2023/12/22 11:04:06;;;;;;;24.37;18.17;;;;;;;7.03;75.57;93211.47;4986842;28;20191;-76
2023/12/22 11:06:36;;;;;;;20.33;18.27;;;;;;;7.12;76.04;93217.47;4990500;28;20231;-75
2023/12/22 11:09:09;;;;;;;22.03;19.13;;;;;;;7.15;74.81;93201.44;4982454;28;20309;-77
2023/12/22 11:11:35;;;;;;;27.10;18.47;;;;;;;7.31;74.07;93185.63;4996307;28;20253;-75
2023/12/22 11:14:01;;;;;;;20.10;16.93;;;;;;;7.30;74.27;93191.84;5002388;28;20219;-76
2023/12/22 11:16:30;;;;;;;22.90;18.80;;;;;;;7.23;75.62;93170.00;4996424;28;20283;-70
2023/12/22 11:18:56;;;;;;;21.20;18.23;;;;;;;7.31;76.15;93162.09;4971094;28;20189;-69